Time;durP1;ratioP1;P1;durP2;ratioP2;P2;SDS_P1;SDS_P2;PMS_P1;PMS_P2;Temp;Humidity;BMP_temperature;BMP_pressure;BME280_temperature;BME280_humidity;BME280_pressure;Samples;Min_cycle;Max_cycle;Signal;HPM_P1;HPM_P2
2022/06/21 00:00:15;;;;;;;;;;;;;;;20.22;47.04;98309.32;1771560;80;20093;-70
2022/06/21 00:02:44;;;;;;;;;;;;;;;20.21;46.95;98305.74;1776661;80;20089;-70
2022/06/21 00:08:11;;;;;;;;;;;;;;;20.21;46.02;98298.78;1765074;80;20080;-70
2022/06/21 00:10:26;;;;;;;;;;;;;;;20.26;45.74;98295.52;1753723;81;20447;-70
2022/06/21 00:12:49;;;;;;;;;;;;;;;20.31;44.99;98290.11;1789687;79;20792;-70
2022/06/21 00:15:32;;;;;;;;;;;;;;;20.39;44.91;98291.06;1776675;81;20108;-70
2022/06/21 00:17:50;;;;;;;;;;;;;;;20.44;44.72;98293.41;1772112;80;21133;-70
2022/06/21 00:20:20;;;;;;;;;;;;;;;20.49;44.45;98291.39;1772222;80;20120;-70
2022/06/21 00:22:57;;;;;;;;;;;;;;;20.50;44.38;98286.80;1776651;81;20089;-71
2022/06/21 00:25:25;;;;;;;;;;;;;;;20.51;44.51;98283.41;1775946;81;20090;-70
2022/06/21 00:27:56;;;;;;;;;;;;;;;20.49;44.56;98277.45;1776973;80;20416;-72
2022/06/21 00:30:25;;;;;;;;;;;;;;;20.46;44.69;98275.48;1749390;80;20117;-70
2022/06/21 00:32:54;;;;;;;;;;;;;;;20.41;44.73;98271.14;1778190;80;20125;-70
2022/06/21 00:35:25;;;;;;;;;;;;;;;20.35;44.95;98269.38;1749362;80;20105;-70
2022/06/21 00:37:52;;;;;;;;;;;;;;;20.29;45.00;98268.23;1778311;80;20080;-70
2022/06/21 00:40:34;;;;;;;;;;;;;;;20.26;45.22;98262.09;1777498;80;20105;-70
2022/06/21 00:43:22;;;;;;;;;;;;;;;20.20;45.18;98260.18;1771936;80;21549;-70
2022/06/21 00:45:52;;;;;;;;;;;;;;;20.15;45.35;98261.41;1777489;80;20117;-70
2022/06/21 00:48:28;;;;;;;;;;;;;;;20.10;45.49;98257.07;1777562;80;20140;-70
2022/06/21 00:51:18;;;;;;;;;;;;;;;20.05;45.55;98242.78;1748049;80;20457;-70
2022/06/21 00:54:10;;;;;;;;;;;;;;;20.00;45.81;98246.80;1778331;80;20097;-70
2022/06/21 00:56:30;;;;;;;;;;;;;;;19.93;46.18;98238.50;1773422;80;21103;-70
2022/06/21 00:58:59;;;;;;;;;;;;;;;19.86;46.52;98234.38;1778196;80;20089;-70
2022/06/21 01:01:27;;;;;;;;;;;;;;;19.79;46.70;98238.60;1774893;80;20093;-70
2022/06/21 01:04:04;;;;;;;;;;;;;;;19.75;46.77;98235.84;1778244;80;20097;-70
2022/06/21 01:06:38;;;;;;;;;;;;;;;19.71;46.93;98236.47;1778253;80;20468;-70
2022/06/21 01:09:15;;;;;;;;;;;;;;;19.67;46.96;98226.55;1778317;80;21968;-70
2022/06/21 01:11:59;;;;;;;;;;;;;;;19.64;47.13;98228.79;1778238;80;20391;-70
2022/06/21 01:14:31;;;;;;;;;;;;;;;19.58;47.28;98215.90;1749313;80;20117;-70
2022/06/21 01:17:02;;;;;;;;;;;;;;;19.53;47.46;98212.16;1766269;80;20441;-70
2022/06/21 01:19:36;;;;;;;;;;;;;;;19.48;47.88;98209.77;1778383;80;20097;-69
2022/06/21 01:22:26;;;;;;;;;;;;;;;19.44;47.82;98209.80;1773494;80;21179;-69
2022/06/21 01:25:28;;;;;;;;;;;;;;;19.39;48.13;98206.64;1771765;80;20097;-69
2022/06/21 01:28:11;;;;;;;;;;;;;;;19.35;48.05;98203.88;1778275;80;20409;-70
2022/06/21 01:30:43;;;;;;;;;;;;;;;19.29;48.25;98197.16;1778343;80;38579;-69
2022/06/21 01:33:13;;;;;;;;;;;;;;;19.24;48.47;98193.41;1749107;80;20156;-71
2022/06/21 01:35:57;;;;;;;;;;;;;;;19.21;48.51;98196.21;1778161;80;21170;-70
2022/06/21 01:38:30;;;;;;;;;;;;;;;19.17;48.33;98195.44;1777383;80;20109;-69
2022/06/21 01:41:03;;;;;;;;;;;;;;;19.12;48.35;98196.05;1764269;80;20093;-69
2022/06/21 01:43:32;;;;;;;;;;;;;;;19.10;48.42;98190.10;1773353;80;20105;-70
2022/06/21 01:46:04;;;;;;;;;;;;;;;19.06;48.43;98187.94;1777560;80;20110;-70
2022/06/21 01:48:39;;;;;;;;;;;;;;;19.02;48.55;98185.80;1777614;80;21160;-69
2022/06/21 01:51:08;;;;;;;;;;;;;;;18.98;48.76;98189.20;1778328;80;20105;-70
2022/06/21 01:53:39;;;;;;;;;;;;;;;18.97;48.82;98189.60;1778249;80;20472;-70
2022/06/21 01:56:14;;;;;;;;;;;;;;;18.95;48.81;98187.82;1777519;80;20441;-70
2022/06/21 01:58:54;;;;;;;;;;;;;;;18.91;48.79;98182.88;1744440;79;20107;-72
2022/06/21 02:01:40;;;;;;;;;;;;;;;18.88;48.77;98185.07;1753950;80;21289;-69
2022/06/21 02:04:07;;;;;;;;;;;;;;;18.85;48.84;98178.92;1747423;82;20096;-70
2022/06/21 02:06:40;;;;;;;;;;;;;;;18.84;49.56;98173.17;1767795;80;20081;-72
2022/06/21 02:09:23;;;;;;;;;;;;;;;18.84;49.29;98180.91;1743788;81;20445;-69
2022/06/21 02:12:03;;;;;;;;;;;;;;;18.83;49.18;98175.16;1752692;79;20097;-68
2022/06/21 02:14:41;;;;;;;;;;;;;;;18.85;49.67;98174.76;1730722;82;20099;-68
2022/06/21 02:17:19;;;;;;;;;;;;;;;18.86;49.59;98168.00;1731387;82;20096;-69
2022/06/21 02:20:35;;;;;;;;;;;;;;;18.86;49.41;98170.18;1719477;82;20071;-68
2022/06/21 02:23:04;;;;;;;;;;;;;;;18.82;49.80;98166.63;1747087;82;20525;-70
2022/06/21 02:25:36;;;;;;;;;;;;;;;18.80;49.59;98157.89;1765419;79;20101;-69
2022/06/21 02:28:06;;;;;;;;;;;;;;;18.78;49.78;98156.11;1764125;79;21133;-69
2022/06/21 02:30:43;;;;;;;;;;;;;;;18.78;49.99;98156.91;1754388;80;20245;-72
2022/06/21 02:33:13;;;;;;;;;;;;;;;18.78;49.96;98149.17;1762824;81;20098;-69
2022/06/21 02:35:54;;;;;;;;;;;;;;;18.78;50.43;98138.05;1758173;81;20109;-69
2022/06/21 02:38:34;;;;;;;;;;;;;;;18.80;50.68;98150.95;1735455;81;20143;-69
2022/06/21 02:41:10;;;;;;;;;;;;;;;18.81;51.07;98149.75;1763104;81;21845;-69
2022/06/21 02:43:47;;;;;;;;;;;;;;;18.79;51.08;98139.63;1759300;81;20118;-70
2022/06/21 02:46:22;;;;;;;;;;;;;;;18.80;51.08;98134.27;1762918;81;20126;-69
2022/06/21 02:49:04;;;;;;;;;;;;;;;18.80;51.22;98138.44;1733907;81;20433;-70
2022/06/21 02:51:53;;;;;;;;;;;;;;;18.79;51.04;98131.30;1733011;81;20453;-70
2022/06/21 02:54:49;;;;;;;;;;;;;;;18.81;51.26;98130.29;1738090;81;21085;-70
2022/06/21 02:57:36;;;;;;;;;;;;;;;18.83;51.11;98121.55;1731684;83;20092;-69
2022/06/21 03:00:09;;;;;;;;;;;;;;;18.84;51.41;98121.73;1702545;83;20137;-69
2022/06/21 03:02:53;;;;;;;;;;;;;;;18.86;51.61;98129.08;1731792;83;20176;-69
2022/06/21 03:05:13;;;;;;;;;;;;;;;18.88;51.46;98116.95;1752639;81;20097;-70
2022/06/21 03:07:53;;;;;;;;;;;;;;;18.90;51.79;98127.86;1722114;82;20145;-70
2022/06/21 03:10:22;;;;;;;;;;;;;;;18.92;51.77;98109.38;1753346;81;20436;-70
2022/06/21 03:12:55;;;;;;;;;;;;;;;18.94;51.85;98113.94;1752859;82;20145;-69
2022/06/21 03:15:18;;;;;;;;;;;;;;;18.94;52.09;98112.55;1752667;82;20453;-69
2022/06/21 03:17:59;;;;;;;;;;;;;;;18.97;52.11;98102.80;1753332;82;20125;-70
2022/06/21 03:20:28;;;;;;;;;;;;;;;19.00;52.25;98100.59;1753583;82;21166;-69
2022/06/21 03:22:59;;;;;;;;;;;;;;;19.04;52.51;98095.80;1753233;81;20464;-68
2022/06/21 03:25:53;;;;;;;;;;;;;;;19.10;52.91;98101.09;1753283;82;20445;-69
2022/06/21 03:28:25;;;;;;;;;;;;;;;19.17;52.84;98096.69;1752084;82;20142;-69
2022/06/21 03:30:59;;;;;;;;;;;;;;;19.22;52.90;98092.09;1756670;81;20144;-70
2022/06/21 03:33:31;;;;;;;;;;;;;;;19.27;52.69;98093.05;1730995;81;20114;-69
2022/06/21 03:35:59;;;;;;;;;;;;;;;19.32;52.64;98095.39;1736012;81;20122;-69
2022/06/21 03:38:33;;;;;;;;;;;;;;;19.39;53.00;98095.34;1735745;81;20118;-69
2022/06/21 03:43:57;;;;;;;;;;;;;;;19.49;52.99;98093.08;1762110;81;20406;-69
2022/06/21 03:46:35;;;;;;;;;;;;;;;19.56;53.20;98093.05;1760789;81;21096;-69
2022/06/21 03:49:05;;;;;;;;;;;;;;;19.64;53.05;98088.97;1734931;81;20082;-69
2022/06/21 03:51:36;;;;;;;;;;;;;;;19.72;52.98;98093.27;1762439;81;20123;-69
2022/06/21 03:54:15;;;;;;;;;;;;;;;19.77;52.85;98087.27;1735528;81;20099;-69
2022/06/21 03:56:58;;;;;;;;;;;;;;;19.83;53.02;98090.39;1736005;81;20426;-70
2022/06/21 03:59:45;;;;;;;;;;;;;;;19.89;53.02;98076.81;1735996;81;20115;-71
2022/06/21 04:02:38;;;;;;;;;;;;;;;19.95;52.99;98075.16;1761598;81;20094;-70
2022/06/21 04:05:13;;;;;;;;;;;;;;;20.03;53.07;98088.60;1762017;81;20110;-69
2022/06/21 04:07:49;;;;;;;;;;;;;;;20.10;53.47;98081.56;1761879;81;20106;-70
2022/06/21 04:10:24;;;;;;;;;;;;;;;20.19;53.50;98075.50;1792413;80;20068;-68
2022/06/21 04:12:55;;;;;;;;;;;;;;;20.27;53.46;98068.61;1794709;80;21157;-70
2022/06/21 04:15:36;;;;;;;;;;;;;;;20.38;53.60;98075.48;1773119;80;20134;-69
2022/06/21 04:18:06;;;;;;;;;;;;;;;20.49;53.91;98076.15;1792698;79;20118;-71
2022/06/21 04:21:00;;;;;;;;;;;;;;;20.58;53.65;98079.83;1796223;80;20138;-71
2022/06/21 04:23:31;;;;;;;;;;;;;;;20.69;53.33;98079.09;1786285;80;20503;-72
2022/06/21 04:26:03;;;;;;;;;;;;;;;20.80;52.86;98078.95;1794888;79;21118;-71
2022/06/21 04:28:46;;;;;;;;;;;;;;;20.89;52.73;98070.82;1824838;78;20109;-72
2022/06/21 04:31:25;;;;;;;;;;;;;;;20.97;52.12;98063.94;1788888;78;20476;-72
2022/06/21 04:33:58;;;;;;;;;;;;;;;21.07;51.72;98059.59;1757949;81;20094;-72
2022/06/21 04:36:37;;;;;;;;;;;;;;;21.16;51.36;98055.48;1796655;79;20090;-71
2022/06/21 04:39:07;;;;;;;;;;;;;;;21.25;51.69;98062.14;1821174;78;20623;-72
2022/06/21 04:41:52;;;;;;;;;;;;;;;21.36;51.26;98073.14;1822226;79;20113;-71
2022/06/21 04:44:33;;;;;;;;;;;;;;;21.46;51.05;98065.17;1820977;78;20101;-70
2022/06/21 04:47:27;;;;;;;;;;;;;;;21.55;51.14;98060.44;1822171;79;20282;-71
2022/06/21 04:50:02;;;;;;;;;;;;;;;21.66;50.87;98051.27;1822213;79;20077;-72
2022/06/21 04:52:39;;;;;;;;;;;;;;;21.74;50.85;98052.12;1822168;79;20590;-71
2022/06/21 04:55:10;;;;;;;;;;;;;;;21.84;50.69;98041.18;1822498;78;20117;-71
2022/06/21 04:57:43;;;;;;;;;;;;;;;21.95;51.03;98043.17;1796232;79;20413;-72
2022/06/21 05:00:13;;;;;;;;;;;;;;;22.05;50.55;98045.77;1821620;78;20427;-71
2022/06/21 05:02:43;;;;;;;;;;;;;;;22.16;50.39;98039.97;1819506;78;20106;-71
2022/06/21 05:05:18;;;;;;;;;;;;;;;22.24;50.08;98040.62;1821661;78;21354;-72
2022/06/21 05:07:48;;;;;;;;;;;;;;;22.32;50.15;98039.26;1811922;79;20088;-72
2022/06/21 05:10:30;;;;;;;;;;;;;;;22.40;50.15;98037.28;1758191;81;20082;-72
2022/06/21 05:12:56;;;;;;;;;;;;;;;22.49;50.10;98042.91;1757944;81;20107;-72
2022/06/21 05:15:30;;;;;;;;;;;;;;;22.57;50.35;98039.50;1759753;81;20110;-72
2022/06/21 05:18:03;;;;;;;;;;;;;;;22.67;49.55;98033.50;1760738;81;21873;-70
2022/06/21 05:20:32;;;;;;;;;;;;;;;22.76;49.93;98037.11;1724755;83;20085;-73
2022/06/21 05:23:13;;;;;;;;;;;;;;;22.85;49.87;98027.55;1744601;82;20235;-73
2022/06/21 05:25:43;;;;;;;;;;;;;;;22.98;50.40;98029.23;1750827;81;20073;-72
2022/06/21 05:28:30;;;;;;;;;;;;;;;23.11;51.05;98025.75;1756935;80;20207;-73
2022/06/21 05:31:10;;;;;;;;;;;;;;;23.22;50.71;98027.65;1754854;81;21104;-72
2022/06/21 05:33:48;;;;;;;;;;;;;;;23.31;49.65;98030.62;1738928;80;21153;-70
2022/06/21 05:36:24;;;;;;;;;;;;;;;23.37;49.84;98017.06;1758641;81;20088;-71
2022/06/21 05:38:53;;;;;;;;;;;;;;;23.44;48.72;98018.90;1758668;81;20092;-70
2022/06/21 05:41:33;;;;;;;;;;;;;;;23.49;49.19;98013.38;1756272;81;20573;-69
2022/06/21 05:44:11;;;;;;;;;;;;;;;23.57;50.27;98002.98;1758799;81;21144;-69
2022/06/21 05:46:47;;;;;;;;;;;;;;;23.72;49.56;98010.38;1758626;81;20112;-71
2022/06/21 05:49:23;;;;;;;;;;;;;;;23.80;50.00;98008.17;1758687;81;20423;-72
2022/06/21 05:51:49;;;;;;;;;;;;;;;23.86;49.80;98010.00;1765153;80;20419;-71
2022/06/21 05:54:17;;;;;;;;;;;;;;;23.95;48.98;98019.17;1758922;81;20157;-71
2022/06/21 05:56:45;;;;;;;;;;;;;;;23.98;48.81;98007.08;1758628;81;21862;-71
2022/06/21 05:59:14;;;;;;;;;;;;;;;24.05;49.14;98006.88;1758533;81;20094;-70
2022/06/21 06:01:47;;;;;;;;;;;;;;;24.13;49.41;97999.06;1779328;80;20133;-70
2022/06/21 06:04:24;;;;;;;;;;;;;;;24.19;49.56;97998.07;1789792;80;20080;-70
2022/06/21 06:06:50;;;;;;;;;;;;;;;24.27;49.43;98002.25;1783683;80;20146;-70
2022/06/21 06:09:30;;;;;;;;;;;;;;;24.35;49.75;98002.21;1791573;80;21528;-71
2022/06/21 06:12:03;;;;;;;;;;;;;;;24.46;49.70;97996.29;1749139;80;20112;-70
2022/06/21 06:14:42;;;;;;;;;;;;;;;24.53;49.47;97998.09;1791767;80;20079;-70
2022/06/21 06:17:33;;;;;;;;;;;;;;;24.57;49.30;97995.36;1791831;79;20103;-72
2022/06/21 06:20:08;;;;;;;;;;;;;;;24.63;49.42;97992.78;1792015;80;20423;-69
2022/06/21 06:23:02;;;;;;;;;;;;;;;24.73;49.67;97989.48;1791856;80;21484;-71
2022/06/21 06:25:37;;;;;;;;;;;;;;;24.82;49.48;97989.59;1791415;80;20076;-72
2022/06/21 06:28:23;;;;;;;;;;;;;;;24.93;50.01;97981.59;1765052;80;20164;-72
2022/06/21 06:30:59;;;;;;;;;;;;;;;25.01;48.84;97979.55;1791894;80;20139;-73
2022/06/21 06:33:35;;;;;;;;;;;;;;;25.09;49.35;97986.34;1782126;80;20149;-75
2022/06/21 06:36:07;;;;;;;;;;;;;;;25.14;48.94;97978.75;1802026;78;21137;-75
2022/06/21 06:38:35;;;;;;;;;;;;;;;25.20;49.90;97983.97;1802439;79;20119;-73
2022/06/21 06:41:16;;;;;;;;;;;;;;;25.32;50.57;97982.55;1803163;79;20143;-72
2022/06/21 06:43:50;;;;;;;;;;;;;;;25.46;50.83;97974.23;1802847;78;20294;-71
2022/06/21 06:46:34;;;;;;;;;;;;;;;25.67;50.00;97976.95;1796590;78;20296;-72
2022/06/21 06:49:24;;;;;;;;;;;;;;;25.82;49.89;97971.62;1802996;79;21146;-70
2022/06/21 06:52:24;;;;;;;;;;;;;;;25.93;48.72;97966.40;1803187;79;20468;-70
2022/06/21 06:54:56;;;;;;;;;;;;;;;25.99;49.55;97960.36;1802869;78;20072;-73
2022/06/21 06:57:53;;;;;;;;;;;;;;;26.14;49.80;97959.97;1803131;79;20092;-72
2022/06/21 07:00:28;;;;;;;;;;;;;;;26.30;49.34;97963.98;1802971;79;20107;-72
2022/06/21 07:02:58;;;;;;;;;;;;;;;26.44;50.49;97966.91;1803102;78;21939;-72
2022/06/21 07:05:40;;;;;;;;;;;;;;;26.63;49.25;97957.91;1798740;79;20084;-70
2022/06/21 07:08:28;;;;;;;;;;;;;;;26.71;47.35;97962.02;1803291;79;20087;-73
2022/06/21 07:10:57;;;;;;;;;;;;;;;26.65;48.39;97954.01;1802878;78;20224;-75
2022/06/21 07:13:24;;;;;;;;;;;;;;;26.66;50.85;97951.36;1776379;79;20111;-75
2022/06/21 07:15:51;;;;;;;;;;;;;;;26.76;48.84;97946.55;1785323;79;21499;-74
2022/06/21 07:18:32;;;;;;;;;;;;;;;26.86;49.43;97948.94;1789583;80;20096;-75
2022/06/21 07:21:00;;;;;;;;;;;;;;;27.03;48.93;97947.30;1779127;79;20108;-70
2022/06/21 07:23:28;;;;;;;;;;;;;;;27.22;47.18;97950.30;1789792;79;20372;-72
2022/06/21 07:26:17;;;;;;;;;;;;;;;27.25;47.49;97952.19;1790065;80;20451;-72
2022/06/21 07:28:47;;;;;;;;;;;;;;;27.34;48.06;97947.98;1789822;79;21109;-72
2022/06/21 07:31:20;;;;;;;;;;;;;;;27.46;47.70;97943.46;1790107;79;20151;-72
2022/06/21 07:33:50;;;;;;;;;;;;;;;27.56;47.56;97941.59;1786880;79;20108;-72
2022/06/21 07:36:23;;;;;;;;;;;;;;;27.66;46.27;97940.22;1783587;80;20135;-73
2022/06/21 07:38:56;;;;;;;;;;;;;;;27.66;46.47;97940.22;1827362;78;20086;-72
2022/06/21 07:41:32;;;;;;;;;;;;;;;27.65;47.41;97930.98;1827556;78;21729;-72
2022/06/21 07:44:03;;;;;;;;;;;;;;;27.76;46.93;97931.27;1827119;78;20077;-72
2022/06/21 07:46:35;;;;;;;;;;;;;;;27.91;46.68;97932.20;1827575;78;20416;-77
2022/06/21 07:49:14;;;;;;;;;;;;;;;27.96;45.25;97933.61;1825999;78;20065;-71
2022/06/21 07:51:44;;;;;;;;;;;;;;;28.00;45.44;97931.41;1825971;78;20101;-71
2022/06/21 07:54:15;;;;;;;;;;;;;;;28.10;44.23;97928.73;1827229;78;21179;-75
2022/06/21 07:56:45;;;;;;;;;;;;;;;28.21;45.60;97926.83;1827450;78;20078;-71
2022/06/21 07:59:19;;;;;;;;;;;;;;;28.38;45.71;97934.32;1827023;77;20532;-72
2022/06/21 08:06:41;;;;;;;;;;;;;;;28.77;44.26;97938.89;1827383;78;20077;-70
2022/06/21 08:07:56;;;;;;;;;;;;;;;28.90;43.79;97937.27;1823608;78;21127;-70
2022/06/21 08:10:26;;;;;;;;;;;;;;;28.99;44.73;97931.58;1827392;78;20253;-70
2022/06/21 08:12:53;;;;;;;;;;;;;;;29.10;42.37;97933.88;1827668;78;20121;-68
2022/06/21 08:15:20;;;;;;;;;;;;;;;29.17;42.92;97929.28;1827268;78;20101;-68
2022/06/21 08:18:05;;;;;;;;;;;;;;;29.24;42.66;97934.58;1827320;78;20457;-68
2022/06/21 08:20:46;;;;;;;;;;;;;;;29.36;43.50;97932.14;1827147;78;21157;-67
2022/06/21 08:23:21;;;;;;;;;;;;;;;29.50;40.41;97937.70;1825918;78;20421;-67
2022/06/21 08:25:58;;;;;;;;;;;;;;;29.54;41.94;97934.06;1811177;78;20090;-68
2022/06/21 08:28:32;;;;;;;;;;;;;;;29.81;41.71;97935.89;1812812;78;20149;-67
2022/06/21 08:31:01;;;;;;;;;;;;;;;30.11;41.36;97931.84;1827364;78;20101;-67
2022/06/21 08:33:36;;;;;;;;;;;;;;;30.33;40.26;97934.30;1820271;78;21148;-69
2022/06/21 08:36:09;;;;;;;;;;;;;;;30.50;41.71;97928.93;1800125;79;20083;-67
2022/06/21 08:38:39;;;;;;;;;;;;;;;30.83;41.34;97925.22;1800285;78;20108;-68
2022/06/21 08:41:52;;;;;;;;;;;;;;;31.15;39.63;97928.30;1800200;79;20107;-67
2022/06/21 08:45:40;;;;;;;;;;;;;;;31.27;39.07;97928.56;1773756;79;20093;-70
2022/06/21 08:47:44;;;;;;;;;;;;;;;31.30;38.48;97914.82;1785405;80;21239;-70
2022/06/21 08:50:43;;;;;;;;;;;;;;;31.32;38.78;97920.00;1760076;80;20108;-69
2022/06/21 08:53:28;;;;;;;;;;;;;;;31.51;38.05;97923.47;1775491;80;20104;-70
2022/06/21 08:55:58;;;;;;;;;;;;;;;31.78;38.78;97920.05;1732338;81;20547;-70
2022/06/21 08:58:34;;;;;;;;;;;;;;;31.88;38.12;97917.84;1784050;80;20464;-71
2022/06/21 09:01:32;;;;;;;;;;;;;;;31.84;38.37;97923.09;1783485;80;21110;-69
2022/06/21 09:04:27;;;;;;;;;;;;;;;31.66;37.23;97921.20;1784004;79;20081;-70
2022/06/21 09:07:03;;;;;;;;;;;;;;;31.33;37.88;97920.92;1783906;80;20155;-69
2022/06/21 09:09:55;;;;;;;;;;;;;;;31.08;38.68;97916.70;1800194;79;20177;-69
2022/06/21 09:12:25;;;;;;;;;;;;;;;31.01;39.88;97913.50;1719981;82;20141;-69
2022/06/21 09:14:57;;;;;;;;;;;;;;;31.21;39.94;97919.20;1737253;82;21097;-69
2022/06/21 09:17:30;;;;;;;;;;;;;;;31.55;38.22;97921.06;1764985;79;20115;-68
2022/06/21 09:20:19;;;;;;;;;;;;;;;31.63;37.56;97910.85;1800550;79;20079;-69
2022/06/21 09:23:07;;;;;;;;;;;;;;;31.72;38.30;97907.25;1800132;79;20465;-70
2022/06/21 09:25:37;;;;;;;;;;;;;;;31.81;37.93;97906.30;1800553;79;20155;-69
2022/06/21 09:28:07;;;;;;;;;;;;;;;31.68;37.93;97905.91;1799173;78;21170;-72
2022/06/21 09:30:40;;;;;;;;;;;;;;;31.38;38.38;97896.75;1799561;78;20698;-72
2022/06/21 09:33:19;;;;;;;;;;;;;;;31.01;39.00;97903.59;1799825;78;20084;-73
2022/06/21 09:35:49;;;;;;;;;;;;;;;30.57;40.04;97897.41;1770150;78;20091;-70
2022/06/21 09:38:34;;;;;;;;;;;;;;;29.99;41.92;97898.17;1800231;79;20092;-69
2022/06/21 09:41:17;;;;;;;;;;;;;;;29.41;42.94;97906.08;1799066;79;21027;-72
2022/06/21 09:44:08;;;;;;;;;;;;;;;28.78;44.55;97912.85;1797960;78;20154;-72
2022/06/21 09:46:57;;;;;;;;;;;;;;;28.37;45.96;97909.55;1777065;78;20145;-74
2022/06/21 09:49:58;;;;;;;;;;;;;;;28.33;46.50;97903.92;1768528;79;20108;-72
2022/06/21 09:52:37;;;;;;;;;;;;;;;28.87;45.97;97915.03;1785150;79;20124;-70
2022/06/21 09:55:45;;;;;;;;;;;;;;;29.52;44.36;97902.67;1771494;79;20119;-70
2022/06/21 09:58:41;;;;;;;;;;;;;;;29.83;43.98;97893.77;1800373;79;20103;-70
2022/06/21 10:01:15;;;;;;;;;;;;;;;29.92;43.69;97893.68;1799368;79;20072;-70
2022/06/21 10:04:01;;;;;;;;;;;;;;;29.83;44.18;97900.84;1800403;79;20439;-70
2022/06/21 10:07:01;;;;;;;;;;;;;;;29.78;43.73;97914.23;1754274;79;20431;-71
2022/06/21 10:09:44;;;;;;;;;;;;;;;29.67;44.08;97894.22;1784923;79;20992;-72
2022/06/21 10:12:33;;;;;;;;;;;;;;;29.32;45.20;97903.28;1787409;80;20565;-70
2022/06/21 10:15:15;;;;;;;;;;;;;;;28.76;45.78;97907.68;1790192;79;20425;-70
2022/06/21 10:17:48;;;;;;;;;;;;;;;28.12;48.55;97914.16;1749368;80;20593;-71
2022/06/21 10:20:30;;;;;;;;;;;;;;;27.55;52.34;97905.42;1756541;80;20420;-72
2022/06/21 10:23:08;;;;;;;;;;;;;;;26.89;56.88;97912.03;1782425;79;21126;-73
2022/06/21 10:25:41;;;;;;;;;;;;;;;26.26;59.72;97921.14;1780935;80;20120;-70
2022/06/21 10:28:17;;;;;;;;;;;;;;;25.64;62.47;97911.83;1799004;78;20088;-70
2022/06/21 10:31:20;;;;;;;;;;;;;;;25.18;63.82;97906.42;1800098;78;20103;-68
2022/06/21 10:33:58;;;;;;;;;;;;;;;24.90;67.11;97906.72;1737153;81;20124;-72
2022/06/21 10:36:44;;;;;;;;;;;;;;;24.74;69.11;97920.91;1788843;79;20623;-72
2022/06/21 10:39:41;;;;;;;;;;;;;;;24.59;68.98;97920.56;1801911;79;20092;-75
2022/06/21 10:42:47;;;;;;;;;;;;;;;24.46;71.02;97920.56;1803053;79;20091;-70
2022/06/21 10:45:39;;;;;;;;;;;;;;;24.35;70.46;97925.09;1802118;79;20104;-70
2022/06/21 10:48:31;;;;;;;;;;;;;;;24.29;70.75;97921.27;1775631;79;20147;-70
2022/06/21 10:51:08;;;;;;;;;;;;;;;24.31;71.40;97926.44;1782237;77;21566;-78
2022/06/21 10:53:52;;;;;;;;;;;;;;;24.28;72.09;97940.73;1764956;80;20120;-72
2022/06/21 11:02:51;;;;;;;;;;;;;;;23.60;73.75;97976.11;1789833;79;20119;-72
2022/06/21 11:05:34;;;;;;;;;;;;;;;23.22;76.15;98001.05;1790198;79;21205;-73
2022/06/21 11:08:12;;;;;;;;;;;;;;;22.45;79.84;98067.36;1789679;79;20092;-78
2022/06/21 11:11:05;;;;;;;;;;;;;;;20.74;80.80;98091.17;1789588;80;20080;-80
2022/06/21 11:13:35;;;;;;;;;;;;;;;19.35;87.81;98087.62;1764944;80;20116;-72
2022/06/21 11:16:17;;;;;;;;;;;;;;;18.60;94.42;98131.17;1789732;79;20116;-72
2022/06/21 11:19:14;;;;;;;;;;;;;;;18.15;99.69;98182.88;1789164;80;21166;-72
2022/06/21 11:21:47;;;;;;;;;;;;;;;17.81;100.00;98122.85;1788660;79;20092;-72
2022/06/21 11:24:34;;;;;;;;;;;;;;;17.58;100.00;98157.11;1789569;79;20159;-72
2022/06/21 11:27:27;;;;;;;;;;;;;;;17.39;100.00;98099.44;1789679;80;20119;-72
2022/06/21 11:30:03;;;;;;;;;;;;;;;17.24;100.00;98054.09;1789645;79;20435;-77
2022/06/21 11:32:39;;;;;;;;;;;;;;;17.15;100.00;98103.01;1789305;79;21332;-71
2022/06/21 11:35:18;;;;;;;;;;;;;;;17.15;100.00;98134.30;1783687;80;20092;-78
2022/06/21 11:38:01;;;;;;;;;;;;;;;17.08;100.00;98143.98;1780952;79;20123;-75
2022/06/21 11:40:49;;;;;;;;;;;;;;;16.97;100.00;98129.30;1770676;80;20211;-77
2022/06/21 11:43:38;;;;;;;;;;;;;;;16.90;100.00;98148.69;1775310;80;20149;-76
2022/06/21 11:46:08;;;;;;;;;;;;;;;16.77;100.00;98140.52;1745028;80;21141;-77
2022/06/21 11:48:50;;;;;;;;;;;;;;;16.64;100.00;98154.52;1784551;80;20159;-77
2022/06/21 11:51:23;;;;;;;;;;;;;;;16.56;100.00;98155.08;1754714;82;20145;-77
2022/06/21 11:54:00;;;;;;;;;;;;;;;16.49;100.00;98135.66;1755492;80;20097;-74
2022/06/21 11:56:55;;;;;;;;;;;;;;;16.46;100.00;98127.53;1755175;82;20153;-77
2022/06/21 11:59:37;;;;;;;;;;;;;;;16.43;100.00;98135.83;1740557;82;21151;-74
2022/06/21 12:02:22;;;;;;;;;;;;;;;16.38;100.00;98134.22;1773331;80;20143;-73
2022/06/21 12:05:07;;;;;;;;;;;;;;;16.45;100.00;98127.92;1786564;80;20106;-74
2022/06/21 12:07:55;;;;;;;;;;;;;;;16.59;100.00;98134.12;1764303;80;20107;-75
2022/06/21 12:10:28;;;;;;;;;;;;;;;16.80;100.00;98127.27;1786332;79;20107;-71
2022/06/21 12:13:09;;;;;;;;;;;;;;;17.01;100.00;98137.03;1786297;80;21154;-72
2022/06/21 12:15:41;;;;;;;;;;;;;;;17.20;100.00;98139.26;1786266;80;20431;-76
2022/06/21 12:18:16;;;;;;;;;;;;;;;17.44;100.00;98139.86;1785766;80;20111;-72
2022/06/21 12:20:46;;;;;;;;;;;;;;;17.69;100.00;98140.70;1786230;80;20107;-72
2022/06/21 12:23:29;;;;;;;;;;;;;;;18.02;100.00;98140.84;1786164;80;20111;-71
2022/06/21 12:25:55;;;;;;;;;;;;;;;18.09;100.00;98145.00;1786318;79;21894;-71
2022/06/21 12:28:23;;;;;;;;;;;;;;;18.11;100.00;98134.88;1786111;80;20107;-71
2022/06/21 12:30:50;;;;;;;;;;;;;;;18.10;100.00;98141.63;1786200;80;20135;-79
2022/06/21 12:33:18;;;;;;;;;;;;;;;18.10;100.00;98129.12;1786164;80;20119;-74
2022/06/21 12:35:50;;;;;;;;;;;;;;;18.14;100.00;98132.69;1787214;79;20179;-73
2022/06/21 12:38:20;;;;;;;;;;;;;;;18.17;100.00;98133.87;1789789;80;21110;-76
2022/06/21 12:40:59;;;;;;;;;;;;;;;18.17;99.98;98123.56;1789837;80;20122;-72
2022/06/21 12:43:38;;;;;;;;;;;;;;;18.11;100.00;98119.61;1788118;80;20457;-72
2022/06/21 12:46:07;;;;;;;;;;;;;;;18.17;100.00;98125.55;1798185;80;20504;-75
2022/06/21 12:48:46;;;;;;;;;;;;;;;18.33;100.00;98130.86;1798444;79;20150;-71
2022/06/21 12:51:42;;;;;;;;;;;;;;;18.47;99.92;98130.03;1798219;78;21130;-72
2022/06/21 12:54:21;;;;;;;;;;;;;;;18.56;99.54;98115.08;1798438;78;20118;-75
2022/06/21 12:57:24;;;;;;;;;;;;;;;18.72;95.15;98115.44;1708104;82;20433;-74
2022/06/21 12:59:58;;;;;;;;;;;;;;;18.83;95.37;98115.98;1798207;80;20119;-75
2022/06/21 13:02:54;;;;;;;;;;;;;;;19.04;92.90;98111.09;1798223;80;20154;-74
2022/06/21 13:05:36;;;;;;;;;;;;;;;19.25;92.12;98121.88;1798468;80;21046;-71
2022/06/21 13:08:23;;;;;;;;;;;;;;;19.65;90.33;98122.56;1798133;80;20107;-71
2022/06/21 13:11:14;;;;;;;;;;;;;;;19.98;80.40;98116.11;1753489;79;20126;-71
2022/06/21 13:13:56;;;;;;;;;;;;;;;19.93;77.80;98130.48;1798025;80;20130;-71
2022/06/21 13:16:54;;;;;;;;;;;;;;;19.69;78.79;98137.25;1798279;80;20118;-71
2022/06/21 13:19:26;;;;;;;;;;;;;;;19.54;80.54;98138.59;1798233;80;21130;-73
2022/06/21 13:22:25;;;;;;;;;;;;;;;19.70;80.11;98148.58;1781197;79;20155;-69
2022/06/21 13:25:19;;;;;;;;;;;;;;;20.10;75.54;98139.27;1798216;80;20446;-71
2022/06/21 13:28:18;;;;;;;;;;;;;;;20.27;68.53;98122.16;1798054;80;20107;-71
2022/06/21 13:31:00;;;;;;;;;;;;;;;20.42;70.59;98143.91;1798154;79;20505;-71
2022/06/21 13:33:39;;;;;;;;;;;;;;;20.59;65.17;98155.28;1798296;80;21859;-70
2022/06/21 13:36:09;;;;;;;;;;;;;;;20.29;65.15;98152.59;1769491;80;20119;-70
2022/06/21 13:38:51;;;;;;;;;;;;;;;20.03;66.26;98149.09;1794094;80;20170;-68
2022/06/21 13:44:16;;;;;;;;;;;;;;;19.86;66.02;98150.04;1794305;80;20142;-68
2022/06/21 13:46:48;;;;;;;;;;;;;;;20.02;67.03;98151.09;1793960;80;21259;-67
2022/06/21 13:49:30;;;;;;;;;;;;;;;19.97;62.53;98139.59;1765629;80;20311;-67
2022/06/21 13:51:59;;;;;;;;;;;;;;;19.78;63.17;98138.97;1794376;80;20174;-70
2022/06/21 13:54:39;;;;;;;;;;;;;;;19.55;60.05;98142.95;1791613;80;20142;-70
2022/06/21 13:57:09;;;;;;;;;;;;;;;19.33;62.43;98156.20;1794132;80;20478;-68
2022/06/21 13:59:39;;;;;;;;;;;;;;;19.19;62.92;98163.84;1794253;80;21092;-69